Time;durP1;ratioP1;P1;durP2;ratioP2;P2;SDS_P1;SDS_P2;PMS_P1;PMS_P2;Temp;Humidity;BMP_temperature;BMP_pressure;BME280_temperature;BME280_humidity;BME280_pressure;Samples;Min_cycle;Max_cycle;Signal;HPM_P1;HPM_P2
2021/10/07 00:01:20;;;;;;;2.67;2.47;;;10.80;92.70;;;;;;5002972;28;20076;-67
2021/10/07 00:03:46;;;;;;;4.25;2.38;;;10.80;92.40;;;;;;5003670;28;20054;-66
2021/10/07 00:06:12;;;;;;;5.57;2.53;;;10.80;92.10;;;;;;5003698;28;20030;-66
2021/10/07 00:08:37;;;;;;;5.65;2.50;;;10.70;92.10;;;;;;5002187;28;20625;-66
2021/10/07 00:11:03;;;;;;;4.18;2.72;;;10.70;92.40;;;;;;5002482;28;20124;-67
2021/10/07 00:13:29;;;;;;;5.47;3.10;;;10.70;92.60;;;;;;5001980;28;20041;-67
2021/10/07 00:15:55;;;;;;;3.83;2.80;;;10.70;92.70;;;;;;4985071;28;20082;-67
2021/10/07 00:18:21;;;;;;;4.28;2.30;;;10.60;92.80;;;;;;5003440;28;20077;-67
2021/10/07 00:20:46;;;;;;;3.38;2.33;;;10.70;92.90;;;;;;5002853;28;20064;-66
2021/10/07 00:23:16;;;;;;;2.63;2.28;;;10.70;92.70;;;;;;5002931;28;20410;-66
2021/10/07 00:25:41;;;;;;;5.72;2.70;;;10.60;92.40;;;;;;5003104;28;20084;-67
2021/10/07 00:28:11;;;;;;;3.35;2.00;;;10.60;92.30;;;;;;5002347;28;20033;-66
2021/10/07 00:30:41;;;;;;;3.90;2.45;;;10.50;92.10;;;;;;5001997;28;20038;-66
2021/10/07 00:33:35;;;;;;;3.65;2.50;;;10.50;92.20;;;;;;5002852;28;20053;-66
2021/10/07 00:36:09;;;;;;;4.15;2.78;;;10.40;92.50;;;;;;5000851;28;20521;-66
2021/10/07 00:41:19;;;;;;;2.85;2.60;;;10.50;93.00;;;;;;5000382;28;20683;-66
2021/10/07 00:43:45;;;;;;;8.52;2.95;;;10.40;93.00;;;;;;5003040;28;20052;-66
2021/10/07 00:46:11;;;;;;;5.05;2.25;;;10.40;92.90;;;;;;5001905;28;20494;-66
2021/10/07 00:48:36;;;;;;;2.85;2.42;;;10.40;93.10;;;;;;5002433;28;20193;-66
2021/10/07 00:51:02;;;;;;;3.25;2.50;;;10.40;93.30;;;;;;4982376;28;20049;-67
2021/10/07 00:53:28;;;;;;;2.60;2.28;;;10.40;93.40;;;;;;5001647;28;20041;-67
2021/10/07 00:55:54;;;;;;;3.70;2.33;;;10.40;93.20;;;;;;5002413;28;20028;-66
2021/10/07 00:58:19;;;;;;;4.25;1.90;;;10.40;92.90;;;;;;4983937;28;20034;-66
2021/10/07 01:00:46;;;;;;;3.17;1.95;;;10.40;92.30;;;;;;5002345;28;20508;-67
2021/10/07 01:03:12;;;;;;;2.90;2.05;;;10.30;92.00;;;;;;5001790;28;20047;-66
2021/10/07 01:05:38;;;;;;;2.70;2.28;;;10.30;91.90;;;;;;5002960;28;20042;-67
2021/10/07 01:08:05;;;;;;;6.97;2.70;;;10.20;91.90;;;;;;5000920;28;20096;-66
2021/10/07 01:10:31;;;;;;;3.97;2.28;;;10.20;92.10;;;;;;5001463;28;20040;-67
2021/10/07 01:12:56;;;;;;;2.55;2.00;;;10.20;92.50;;;;;;5001351;28;20033;-66
2021/10/07 01:15:22;;;;;;;2.90;2.20;;;10.10;92.30;;;;;;5001046;28;20044;-67
2021/10/07 01:17:48;;;;;;;2.53;2.08;;;10.10;92.40;;;;;;5001265;28;20696;-66
2021/10/07 01:20:14;;;;;;;4.25;2.17;;;10.10;92.70;;;;;;4992963;28;20082;-67
2021/10/07 01:22:39;;;;;;;4.18;2.50;;;10.10;92.40;;;;;;4983154;28;20837;-67
2021/10/07 01:25:06;;;;;;;2.83;2.30;;;10.00;92.30;;;;;;5001388;28;20052;-67
2021/10/07 01:27:34;;;;;;;6.20;2.63;;;10.00;92.40;;;;;;5000707;28;20035;-66
2021/10/07 01:30:10;;;;;;;6.30;3.15;;;10.00;92.40;;;;;;5001026;28;20022;-66
2021/10/07 01:32:37;;;;;;;;;;;10.00;92.60;;;;;;4990861;28;20033;-66
2021/10/07 01:35:05;;;;;;;5.22;2.50;;;10.00;92.60;;;;;;5002139;28;19913;-66
2021/10/07 01:37:31;;;;;;;5.32;3.40;;;10.00;93.00;;;;;;5000674;28;20775;-67
2021/10/07 01:39:57;;;;;;;4.63;3.10;;;10.00;93.30;;;;;;5001359;28;20092;-66
2021/10/07 01:42:22;;;;;;;5.88;3.33;;;10.00;93.50;;;;;;5000933;28;20040;-66
2021/10/07 01:44:48;;;;;;;4.85;2.97;;;10.00;93.40;;;;;;5001316;28;20034;-66
2021/10/07 01:47:14;;;;;;;5.30;3.05;;;10.00;93.20;;;;;;5003358;28;20040;-66
2021/10/07 01:49:40;;;;;;;5.20;2.97;;;10.00;93.20;;;;;;5003928;28;20117;-66
2021/10/07 01:52:06;;;;;;;4.45;3.20;;;10.00;93.30;;;;;;5002764;28;20034;-66
2021/10/07 01:54:31;;;;;;;7.72;3.40;;;10.00;93.30;;;;;;5004696;28;20038;-66
2021/10/07 01:56:57;;;;;;;3.45;2.72;;;10.00;93.30;;;;;;4984204;28;20034;-66
2021/10/07 01:59:23;;;;;;;4.07;3.40;;;10.00;93.40;;;;;;5001058;28;20030;-67
2021/10/07 02:01:48;;;;;;;4.00;2.75;;;10.00;93.40;;;;;;5001842;28;20576;-66
2021/10/07 02:04:14;;;;;;;7.57;2.67;;;10.10;93.50;;;;;;4982900;28;20065;-67
2021/10/07 02:06:40;;;;;;;5.70;3.38;;;10.10;93.50;;;;;;5001748;28;20038;-66
2021/10/07 02:09:06;;;;;;;5.75;3.25;;;10.10;93.60;;;;;;5000651;28;20127;-66
2021/10/07 02:11:33;;;;;;;5.88;3.10;;;10.10;93.70;;;;;;5001077;28;20044;-66
2021/10/07 02:14:00;;;;;;;5.20;3.15;;;10.10;93.70;;;;;;5000871;28;20108;-67
2021/10/07 02:16:30;;;;;;;4.25;2.72;;;10.10;93.60;;;;;;4999875;28;20414;-67
2021/10/07 02:18:55;;;;;;;4.93;2.83;;;10.20;93.50;;;;;;4999812;28;20038;-66
2021/10/07 02:21:21;;;;;;;5.78;3.42;;;10.10;93.40;;;;;;4999810;28;20049;-67
2021/10/07 02:23:47;;;;;;;7.00;3.08;;;10.10;93.30;;;;;;5001135;28;20892;-66
2021/10/07 02:26:13;;;;;;;3.20;2.78;;;10.10;93.30;;;;;;5005047;28;20033;-66
2021/10/07 02:28:38;;;;;;;3.42;3.13;;;10.00;93.30;;;;;;4979018;28;20062;-66
2021/10/07 02:31:04;;;;;;;5.20;3.47;;;10.00;93.30;;;;;;5005521;28;20868;-66
2021/10/07 02:33:30;;;;;;;4.47;2.88;;;10.00;93.20;;;;;;5005371;28;20041;-66
2021/10/07 02:35:56;;;;;;;3.33;2.40;;;10.00;93.10;;;;;;5005543;28;20030;-66
2021/10/07 02:38:21;;;;;;;6.82;2.90;;;10.00;92.90;;;;;;5006067;28;20030;-67
2021/10/07 02:40:47;;;;;;;3.55;2.70;;;9.90;92.60;;;;;;5006261;28;20490;-66
2021/10/07 02:43:13;;;;;;;2.58;2.38;;;9.90;92.80;;;;;;5006307;28;20196;-67
2021/10/07 02:45:39;;;;;;;3.35;2.47;;;9.90;92.70;;;;;;5006473;28;20456;-67
2021/10/07 02:48:04;;;;;;;4.07;2.47;;;9.80;92.80;;;;;;5005645;28;20030;-66
2021/10/07 02:50:30;;;;;;;4.50;2.40;;;9.80;92.50;;;;;;5004626;28;20908;-66
2021/10/07 02:52:56;;;;;;;3.13;2.63;;;9.80;92.50;;;;;;5003065;28;20804;-67
2021/10/07 02:55:22;;;;;;;2.95;2.60;;;9.70;92.70;;;;;;5005889;28;20505;-66
2021/10/07 02:57:48;;;;;;;2.95;2.28;;;9.70;93.10;;;;;;5004518;28;20101;-66
2021/10/07 03:00:16;;;;;;;5.43;3.08;;;9.70;93.10;;;;;;5005850;28;20034;-66
2021/10/07 03:02:42;;;;;;;3.33;2.95;;;9.70;93.30;;;;;;4979761;28;20029;-67
2021/10/07 03:05:08;;;;;;;3.33;3.03;;;9.70;93.20;;;;;;5004927;28;20061;-67
2021/10/07 03:07:34;;;;;;;3.28;2.95;;;9.70;93.10;;;;;;5004916;28;20037;-67
2021/10/07 03:10:00;;;;;;;4.90;2.90;;;9.70;92.80;;;;;;4986913;28;20034;-67
2021/10/07 03:12:26;;;;;;;3.72;2.45;;;9.70;92.60;;;;;;5004957;28;20156;-66
2021/10/07 03:14:52;;;;;;;3.78;3.00;;;9.60;92.50;;;;;;5005097;28;20551;-67
2021/10/07 03:17:17;;;;;;;6.13;2.63;;;9.60;92.50;;;;;;5003481;28;20065;-67
2021/10/07 03:19:44;;;;;;;5.20;3.53;;;9.60;92.70;;;;;;4980002;28;20046;-66
2021/10/07 03:22:10;;;;;;;4.65;3.53;;;9.50;93.00;;;;;;5003871;28;20081;-66
2021/10/07 03:24:36;;;;;;;5.93;3.60;;;9.60;93.30;;;;;;5004596;28;20038;-67
2021/10/07 03:27:03;;;;;;;5.53;3.47;;;9.60;93.40;;;;;;5004050;28;20082;-66
2021/10/07 03:29:30;;;;;;;7.63;3.55;;;9.60;93.40;;;;;;4994949;28;20034;-66
2021/10/07 03:31:56;;;;;;;4.57;2.72;;;9.60;93.30;;;;;;5004195;28;20037;-67
2021/10/07 03:34:22;;;;;;;4.28;2.78;;;9.60;93.10;;;;;;5004355;28;20509;-67
2021/10/07 03:36:48;;;;;;;5.97;2.60;;;9.60;92.80;;;;;;4985594;28;20038;-66
2021/10/07 03:39:13;;;;;;;5.65;2.50;;;9.60;92.60;;;;;;4986553;28;20176;-67
2021/10/07 03:41:39;;;;;;;4.50;2.53;;;9.50;92.00;;;;;;4984603;28;20037;-67
2021/10/07 03:44:06;;;;;;;2.60;2.00;;;9.40;91.80;;;;;;5003864;28;20048;-67
2021/10/07 03:46:32;;;;;;;3.13;2.55;;;9.40;92.20;;;;;;5003462;28;20030;-67
2021/10/07 03:48:58;;;;;;;5.07;2.70;;;9.30;92.20;;;;;;5002733;28;20044;-67
2021/10/07 03:51:23;;;;;;;3.78;2.60;;;9.30;92.40;;;;;;5000364;28;20577;-66
2021/10/07 03:53:49;;;;;;;3.78;2.30;;;9.30;92.40;;;;;;5003738;28;20088;-66
2021/10/07 03:56:14;;;;;;;4.53;3.08;;;9.20;92.20;;;;;;5003310;28;20026;-66
2021/10/07 03:58:40;;;;;;;3.67;3.17;;;9.20;92.60;;;;;;5002604;28;20663;-67
2021/10/07 04:01:06;;;;;;;5.18;3.22;;;9.20;92.70;;;;;;5003714;28;20489;-66
2021/10/07 04:03:32;;;;;;;2.85;2.45;;;9.20;92.80;;;;;;5003529;28;20151;-67
2021/10/07 04:05:58;;;;;;;3.72;2.45;;;9.20;92.80;;;;;;5003503;28;20038;-67
2021/10/07 04:08:24;;;;;;;3.03;2.72;;;9.20;92.70;;;;;;5003802;28;20092;-67
2021/10/07 04:10:50;;;;;;;6.25;2.40;;;9.10;92.60;;;;;;5004906;28;20485;-66
2021/10/07 04:13:18;;;;;;;5.03;3.53;;;9.10;92.80;;;;;;5003615;28;20037;-66
2021/10/07 04:15:46;;;;;;;6.10;3.97;;;9.10;93.00;;;;;;5003978;28;20126;-67
2021/10/07 04:18:15;;;;;;;5.45;4.07;;;9.10;93.30;;;;;;5002917;28;20041;-66
2021/10/07 04:20:43;;;;;;;7.00;3.58;;;9.20;93.60;;;;;;4999692;28;20050;-67
2021/10/07 04:23:09;;;;;;;4.97;2.55;;;9.20;93.40;;;;;;5002802;28;20057;-66
2021/10/07 04:25:35;;;;;;;2.97;2.33;;;9.10;92.70;;;;;;5003710;28;20437;-66
2021/10/07 04:28:04;;;;;;;3.17;2.08;;;9.10;92.20;;;;;;4984347;28;20037;-66
2021/10/07 04:30:30;;;;;;;3.13;2.20;;;9.10;91.90;;;;;;5003621;28;20034;-67
2021/10/07 04:32:56;;;;;;;5.30;2.00;;;9.00;91.40;;;;;;5002782;28;20037;-67
2021/10/07 04:35:21;;;;;;;5.15;2.22;;;9.00;91.30;;;;;;5002088;28;20057;-68
2021/10/07 04:37:47;;;;;;;4.30;1.90;;;8.90;91.00;;;;;;5000818;28;20054;-67
2021/10/07 04:40:13;;;;;;;2.30;2.10;;;8.80;90.90;;;;;;5002656;28;20045;-67
2021/10/07 04:42:39;;;;;;;4.72;2.13;;;8.80;91.20;;;;;;5001444;28;20151;-67
2021/10/07 04:45:05;;;;;;;2.67;2.47;;;8.70;91.60;;;;;;5027758;22;20742;-67
2021/10/07 04:47:31;;;;;;;2.30;2.05;;;8.70;91.80;;;;;;5032800;28;20029;-66
2021/10/07 04:49:56;;;;;;;2.33;2.03;;;8.70;91.50;;;;;;5008429;28;20418;-66
2021/10/07 04:52:22;;;;;;;4.32;2.03;;;8.70;91.10;;;;;;5025938;28;20029;-67
2021/10/07 04:54:48;;;;;;;6.22;2.33;;;8.60;91.00;;;;;;5027476;28;20246;-67
2021/10/07 04:57:14;;;;;;;2.95;2.40;;;8.50;90.60;;;;;;5018564;28;20032;-67
2021/10/07 04:59:40;;;;;;;3.38;2.50;;;8.50;90.30;;;;;;5022801;28;20030;-69
2021/10/07 05:02:05;;;;;;;4.40;2.70;;;8.40;90.20;;;;;;5028793;28;20032;-67
2021/10/07 05:04:31;;;;;;;3.13;2.30;;;8.40;90.30;;;;;;5030935;28;20602;-67
2021/10/07 05:06:57;;;;;;;2.92;2.63;;;8.30;90.80;;;;;;5027987;28;20040;-66
2021/10/07 05:09:23;;;;;;;7.22;4.20;;;8.30;91.30;;;;;;5034432;28;20021;-67
2021/10/07 05:11:48;;;;;;;5.63;4.20;;;8.40;92.00;;;;;;5017423;28;20021;-67
2021/10/07 05:14:14;;;;;;;5.28;4.20;;;8.40;92.70;;;;;;5018390;28;20040;-66
2021/10/07 05:16:40;;;;;;;6.03;4.43;;;8.40;93.10;;;;;;5005088;28;20096;-67
2021/10/07 05:19:05;;;;;;;6.43;4.60;;;8.50;93.50;;;;;;5021441;28;20030;-67
2021/10/07 05:21:31;;;;;;;5.38;4.43;;;8.60;93.80;;;;;;5024885;28;20045;-67
2021/10/07 05:23:57;;;;;;;8.02;5.55;;;8.70;94.00;;;;;;5003832;28;20029;-67
2021/10/07 05:26:23;;;;;;;6.00;4.50;;;8.70;93.90;;;;;;5020003;28;20141;-66
2021/10/07 05:28:48;;;;;;;5.93;4.60;;;8.80;93.70;;;;;;5027457;28;20033;-65
2021/10/07 05:31:14;;;;;;;6.35;4.10;;;8.90;93.40;;;;;;5007719;28;20118;-65
2021/10/07 05:33:40;;;;;;;8.52;5.40;;;8.90;93.20;;;;;;5022534;28;20025;-66
2021/10/07 05:36:06;;;;;;;9.88;5.68;;;8.80;93.00;;;;;;5024590;28;20030;-66
2021/10/07 05:38:32;;;;;;;10.23;6.35;;;8.80;92.90;;;;;;5010307;28;20095;-66
2021/10/07 05:41:00;;;;;;;7.47;5.00;;;8.80;92.80;;;;;;5031355;28;20037;-66
2021/10/07 05:43:26;;;;;;;8.75;4.95;;;8.70;92.40;;;;;;5006773;28;20111;-66
2021/10/07 05:45:52;;;;;;;6.57;4.80;;;8.70;92.00;;;;;;5024705;28;20040;-66
2021/10/07 05:48:18;;;;;;;7.85;4.70;;;8.70;91.80;;;;;;5031447;28;20028;-65
2021/10/07 05:50:44;;;;;;;8.48;5.07;;;8.70;91.80;;;;;;5036804;28;20025;-65
2021/10/07 05:53:09;;;;;;;7.47;4.88;;;8.70;92.00;;;;;;5024582;28;20052;-66
2021/10/07 05:55:35;;;;;;;8.48;5.15;;;8.70;92.20;;;;;;5025702;28;20073;-66
2021/10/07 05:58:00;;;;;;;7.28;4.85;;;8.80;92.60;;;;;;5021121;28;20037;-66
2021/10/07 06:00:27;;;;;;;9.93;4.85;;;8.90;92.80;;;;;;5030000;28;20083;-67
2021/10/07 06:02:52;;;;;;;7.15;5.05;;;8.90;93.00;;;;;;5025152;28;20057;-66
2021/10/07 06:05:18;;;;;;;7.03;4.80;;;9.00;93.20;;;;;;5026639;28;20251;-66
2021/10/07 06:07:44;;;;;;;8.05;4.43;;;9.20;93.70;;;;;;5022857;28;20026;-66
2021/10/07 06:10:14;;;;;;;10.07;5.97;;;9.20;93.70;;;;;;5025290;28;20048;-66
2021/10/07 06:12:40;;;;;;;10.77;6.40;;;9.30;93.70;;;;;;5026625;28;20040;-66
2021/10/07 06:15:07;;;;;;;7.43;5.13;;;9.30;93.70;;;;;;5016020;28;20037;-66
2021/10/07 06:17:33;;;;;;;5.13;3.80;;;9.40;93.80;;;;;;5018438;28;20150;-66
2021/10/07 06:20:19;;;;;;;7.50;4.60;;;9.50;94.00;;;;;;5024524;28;20063;-66
2021/10/07 06:22:49;;;;;;;6.93;4.63;;;9.50;93.90;;;;;;5014096;28;20041;-66
2021/10/07 06:25:15;;;;;;;6.88;4.30;;;9.50;93.50;;;;;;5022799;28;20033;-67
2021/10/07 06:27:41;;;;;;;6.18;4.10;;;9.50;93.00;;;;;;5019729;28;20555;-67
2021/10/07 06:30:08;;;;;;;7.13;3.95;;;9.50;92.60;;;;;;5015341;28;20707;-66
2021/10/07 06:32:33;;;;;;;5.70;3.90;;;9.50;92.30;;;;;;5017080;28;20036;-67
2021/10/07 06:34:59;;;;;;;7.22;4.05;;;9.50;92.40;;;;;;5032852;28;20638;-65
2021/10/07 06:37:24;;;;;;;7.18;4.00;;;9.50;92.30;;;;;;5019961;28;20087;-65
2021/10/07 06:39:50;;;;;;;4.72;3.33;;;9.60;92.40;;;;;;4998698;28;20065;-65
2021/10/07 06:42:16;;;;;;;7.75;3.85;;;9.60;92.50;;;;;;5033939;28;20111;-65
2021/10/07 06:44:41;;;;;;;4.60;3.65;;;9.60;92.60;;;;;;5025311;28;20065;-65
2021/10/07 06:47:07;;;;;;;4.32;3.15;;;9.70;92.50;;;;;;5018802;28;20029;-65
2021/10/07 06:49:33;;;;;;;4.72;3.28;;;9.70;92.60;;;;;;5020834;28;20129;-65
2021/10/07 06:51:58;;;;;;;3.97;3.20;;;9.70;92.70;;;;;;5022773;28;20381;-65
2021/10/07 06:54:24;;;;;;;6.70;4.75;;;9.80;92.90;;;;;;5032059;28;20036;-65
2021/10/07 06:56:50;;;;;;;7.57;5.30;;;9.80;93.00;;;;;;5015977;28;20033;-65
2021/10/07 06:59:15;;;;;;;10.10;6.35;;;9.90;93.10;;;;;;5031516;28;20548;-65
2021/10/07 07:01:41;;;;;;;6.55;5.03;;;10.00;93.30;;;;;;5018015;28;20037;-65
2021/10/07 07:04:07;;;;;;;6.85;5.10;;;10.00;93.40;;;;;;5031203;28;20036;-65
2021/10/07 07:06:32;;;;;;;6.00;4.80;;;10.10;93.50;;;;;;5017785;28;20035;-65
2021/10/07 07:09:01;;;;;;;6.05;4.30;;;10.20;93.60;;;;;;5022705;28;20687;-66
2021/10/07 07:11:28;;;;;;;6.65;4.25;;;10.30;93.70;;;;;;5020979;28;20029;-65
2021/10/07 07:13:54;;;;;;;6.25;4.28;;;10.40;93.70;;;;;;5024499;28;20125;-64
2021/10/07 07:16:20;;;;;;;7.78;5.00;;;10.50;93.80;;;;;;5019511;28;20108;-67
2021/10/07 07:18:46;;;;;;;6.47;4.63;;;10.60;93.70;;;;;;5006448;28;20047;-66
2021/10/07 07:21:12;;;;;;;7.47;5.28;;;10.70;93.70;;;;;;5006394;28;20026;-65
2021/10/07 07:23:38;;;;;;;8.13;6.05;;;11.00;93.50;;;;;;5020198;28;20140;-65
2021/10/07 07:26:03;;;;;;;8.98;6.07;;;11.30;93.00;;;;;;5026147;28;20039;-66
2021/10/07 07:28:29;;;;;;;9.07;5.55;;;11.50;92.80;;;;;;5024288;28;20037;-65
2021/10/07 07:30:55;;;;;;;6.88;5.10;;;11.50;92.80;;;;;;5031820;28;20029;-65
2021/10/07 07:33:24;;;;;;;15.50;8.15;;;11.50;92.90;;;;;;5022076;28;20141;-65
2021/10/07 07:35:50;;;;;;;8.43;4.93;;;11.60;93.00;;;;;;5021005;28;20675;-65
2021/10/07 07:38:16;;;;;;;8.27;6.03;;;11.60;93.10;;;;;;5026849;28;20515;-66
2021/10/07 07:40:43;;;;;;;6.97;5.53;;;11.60;92.80;;;;;;5015875;28;20037;-65
2021/10/07 07:43:09;;;;;;;6.05;4.70;;;11.70;92.70;;;;;;5023206;28;20041;-65
2021/10/07 07:45:34;;;;;;;8.73;5.38;;;11.70;92.60;;;;;;5017118;28;20421;-66
2021/10/07 07:48:00;;;;;;;7.25;5.28;;;11.70;92.70;;;;;;5014955;28;20045;-65
2021/10/07 07:50:29;;;;;;;6.93;4.97;;;11.90;92.80;;;;;;5018523;28;20029;-65
2021/10/07 07:52:57;;;;;;;5.93;4.18;;;11.80;93.10;;;;;;5016984;28;20041;-65
2021/10/07 07:55:23;;;;;;;7.72;4.38;;;11.90;93.00;;;;;;4996460;28;20568;-65
2021/10/07 07:57:50;;;;;;;7.45;5.03;;;12.00;93.10;;;;;;5015941;28;20037;-65
2021/10/07 08:00:16;;;;;;;4.40;4.00;;;12.00;93.00;;;;;;5015662;28;20859;-66
2021/10/07 08:02:42;;;;;;;6.85;4.70;;;12.10;93.10;;;;;;5001228;28;20030;-66
2021/10/07 08:05:08;;;;;;;5.75;4.20;;;12.20;93.10;;;;;;5020804;28;20685;-65
2021/10/07 08:07:34;;;;;;;5.78;4.20;;;12.20;93.10;;;;;;5002194;28;20041;-65
2021/10/07 08:10:00;;;;;;;8.32;4.57;;;12.30;93.10;;;;;;5027231;28;20042;-65
2021/10/07 08:12:31;;;;;;;6.47;4.47;;;12.40;93.10;;;;;;5028456;28;20048;-65
2021/10/07 08:14:57;;;;;;;8.35;4.97;;;12.50;93.00;;;;;;4999570;28;20103;-65
2021/10/07 08:17:23;;;;;;;5.10;4.20;;;12.60;92.50;;;;;;5021690;28;20603;-65
2021/10/07 08:19:49;;;;;;;7.75;4.45;;;12.70;92.20;;;;;;5023561;28;20119;-65
2021/10/07 08:22:15;;;;;;;6.95;4.72;;;12.80;92.10;;;;;;5014643;28;20401;-66
2021/10/07 08:24:41;;;;;;;8.48;4.97;;;12.90;92.00;;;;;;5017459;28;20049;-65
2021/10/07 08:27:07;;;;;;;7.82;4.88;;;13.00;91.80;;;;;;5017903;28;20026;-67
2021/10/07 08:29:32;;;;;;;9.75;4.70;;;13.10;91.50;;;;;;5011921;28;20037;-66
2021/10/07 08:31:58;;;;;;;7.68;4.20;;;13.30;91.00;;;;;;5023033;28;20028;-65
2021/10/07 08:34:24;;;;;;;12.75;5.00;;;13.40;91.30;;;;;;5025462;28;20033;-65
2021/10/07 08:36:51;;;;;;;5.55;4.70;;;13.50;90.70;;;;;;5022129;28;20471;-66
2021/10/07 08:39:18;;;;;;;6.00;4.18;;;13.60;90.60;;;;;;5026255;28;20062;-65
2021/10/07 08:41:45;;;;;;;5.15;3.83;;;13.70;90.60;;;;;;4997771;28;20049;-65
2021/10/07 08:44:15;;;;;;;7.50;3.75;;;13.80;90.70;;;;;;5022106;28;20041;-66
2021/10/07 08:46:46;;;;;;;5.57;3.38;;;14.00;90.20;;;;;;5024119;28;20048;-65
2021/10/07 08:49:14;;;;;;;7.50;3.38;;;14.50;89.50;;;;;;5017512;28;20076;-65
2021/10/07 08:51:40;;;;;;;5.75;4.38;;;15.20;86.80;;;;;;5009733;28;20798;-65
2021/10/07 08:54:06;;;;;;;9.15;3.63;;;16.10;82.20;;;;;;5025113;28;20025;-65
2021/10/07 08:56:32;;;;;;;5.88;3.47;;;16.70;77.30;;;;;;5023836;28;20643;-65
2021/10/07 08:59:00;;;;;;;7.03;2.63;;;17.20;75.10;;;;;;4998539;28;20045;-65
2021/10/07 09:01:47;;;;;;;3.80;2.15;;;18.00;72.60;;;;;;5011762;28;20378;-65
2021/10/07 09:04:23;;;;;;;2.95;1.88;;;19.00;64.00;;;;;;5016481;28;20084;-65
2021/10/07 09:06:54;;;;;;;3.60;2.17;;;18.80;64.90;;;;;;5011238;28;20045;-65
2021/10/07 09:09:21;;;;;;;5.15;2.35;;;18.50;66.70;;;;;;5012953;28;20398;-66
2021/10/07 09:11:56;;;;;;;5.10;1.95;;;18.30;68.10;;;;;;5021507;28;20091;-65
2021/10/07 09:14:34;;;;;;;2.40;2.13;;;18.50;69.40;;;;;;5020710;28;20042;-65
2021/10/07 09:17:01;;;;;;;5.03;2.67;;;18.40;68.00;;;;;;5012896;28;20037;-66
2021/10/07 09:19:37;;;;;;;4.13;2.53;;;18.00;68.70;;;;;;5023548;28;20112;-66
2021/10/07 09:22:24;;;;;;;3.67;2.20;;;17.60;69.50;;;;;;5024230;28;20036;-65
2021/10/07 09:24:58;;;;;;;4.80;2.50;;;17.30;71.50;;;;;;5023341;28;20034;-65
2021/10/07 09:27:30;;;;;;;2.83;1.90;;;17.30;72.90;;;;;;5012979;28;20044;-66
2021/10/07 09:30:11;;;;;;;3.03;2.20;;;17.80;72.00;;;;;;5021091;28;20071;-66
2021/10/07 09:32:47;;;;;;;4.30;2.05;;;18.50;70.40;;;;;;5017201;28;20033;-66
2021/10/07 09:35:16;;;;;;;3.40;2.00;;;18.90;68.00;;;;;;5020224;28;20035;-66
2021/10/07 09:37:49;;;;;;;3.42;1.90;;;19.20;67.00;;;;;;5025184;28;20032;-66
2021/10/07 09:40:21;;;;;;;3.30;1.30;;;20.20;64.90;;;;;;5030013;28;20087;-67
2021/10/07 09:42:52;;;;;;;3.67;1.40;;;21.30;58.90;;;;;;5020102;28;20871;-66
2021/10/07 09:45:23;;;;;;;2.45;1.33;;;21.90;58.30;;;;;;5018245;28;20041;-66
2021/10/07 09:47:55;;;;;;;2.90;1.63;;;22.30;54.80;;;;;;5019099;28;20037;-66
2021/10/07 09:50:22;;;;;;;2.28;1.30;;;22.00;56.60;;;;;;5021443;28;20500;-67
2021/10/07 09:52:51;;;;;;;2.90;1.70;;;21.60;57.40;;;;;;5011404;28;20034;-65
2021/10/07 09:55:23;;;;;;;2.67;1.85;;;21.00;58.20;;;;;;5026361;28;20028;-68
2021/10/07 09:57:52;;;;;;;1.60;1.27;;;20.40;60.00;;;;;;5001508;28;20052;-68
2021/10/07 10:00:19;;;;;;;3.17;1.55;;;20.30;61.10;;;;;;5021359;28;20179;-68
2021/10/07 10:02:45;;;;;;;7.07;1.55;;;20.20;60.70;;;;;;5014686;28;20037;-68
2021/10/07 10:05:13;;;;;;;2.72;1.50;;;19.90;61.70;;;;;;5023714;28;20062;-68
2021/10/07 10:07:40;;;;;;;6.68;2.17;;;20.10;61.50;;;;;;5024571;28;20088;-68
2021/10/07 10:10:06;;;;;;;3.90;1.70;;;20.00;61.60;;;;;;5006462;28;20042;-67
2021/10/07 10:12:33;;;;;;;2.85;1.95;;;19.60;61.40;;;;;;5024106;28;20123;-67
2021/10/07 10:15:01;;;;;;;3.38;1.67;;;19.20;63.30;;;;;;5026720;28;20142;-67
2021/10/07 10:17:27;;;;;;;3.88;2.10;;;18.90;64.50;;;;;;5013286;28;20037;-66
2021/10/07 10:19:56;;;;;;;5.60;2.28;;;18.60;66.70;;;;;;5014829;28;20042;-68
2021/10/07 10:22:24;;;;;;;3.80;1.80;;;18.40;66.90;;;;;;5000452;28;20981;-67
2021/10/07 10:24:50;;;;;;;2.80;1.80;;;18.20;65.80;;;;;;5019367;28;20086;-67
2021/10/07 10:27:17;;;;;;;2.78;1.58;;;18.00;67.30;;;;;;5019151;28;20033;-67
2021/10/07 10:29:42;;;;;;;2.22;1.40;;;17.90;68.10;;;;;;5011570;28;20421;-67
2021/10/07 10:32:12;;;;;;;5.13;1.98;;;17.80;68.20;;;;;;5032508;28;20028;-67
2021/10/07 10:34:47;;;;;;;2.05;1.70;;;17.80;68.80;;;;;;5031997;28;20036;-68
2021/10/07 10:37:16;;;;;;;4.70;1.67;;;17.70;68.70;;;;;;5023274;28;20041;-68
2021/10/07 10:39:47;;;;;;;3.80;1.60;;;17.70;69.70;;;;;;5018621;28;20037;-68
2021/10/07 10:42:16;;;;;;;2.75;1.52;;;17.70;69.40;;;;;;5030121;28;20124;-68
2021/10/07 10:45:03;;;;;;;3.58;1.50;;;17.70;69.30;;;;;;5016478;28;20045;-68
2021/10/07 10:47:31;;;;;;;3.80;1.50;;;17.70;67.80;;;;;;5020884;28;20026;-68
2021/10/07 10:50:04;;;;;;;3.67;1.52;;;17.70;69.00;;;;;;5017838;28;20034;-67
2021/10/07 10:52:41;;;;;;;2.58;1.40;;;17.80;68.50;;;;;;5017910;28;21140;-66
2021/10/07 10:55:17;;;;;;;1.88;1.38;;;17.80;68.00;;;;;;4999833;28;20033;-67
2021/10/07 10:57:59;;;;;;;2.58;1.27;;;17.80;67.10;;;;;;4996464;28;20041;-66
2021/10/07 11:00:30;;;;;;;5.00;1.48;;;17.80;67.80;;;;;;5021697;28;20033;-67
2021/10/07 11:03:08;;;;;;;4.78;1.73;;;17.80;68.00;;;;;;5007916;28;20043;-68
2021/10/07 11:05:42;;;;;;;3.83;1.42;;;17.80;67.20;;;;;;5010917;28;20065;-66
2021/10/07 11:08:19;;;;;;;5.25;1.58;;;17.90;65.80;;;;;;5010714;28;20034;-66
2021/10/07 11:10:54;;;;;;;3.88;1.27;;;17.90;66.70;;;;;;5021470;28;20116;-66
2021/10/07 11:13:22;;;;;;;5.22;1.30;;;17.80;65.80;;;;;;5019087;28;20036;-65
2021/10/07 11:15:53;;;;;;;4.57;1.10;;;17.80;64.50;;;;;;5028746;28;20060;-66
2021/10/07 11:18:20;;;;;;;2.63;1.25;;;17.80;65.10;;;;;;5025298;28;20095;-66
2021/10/07 11:20:45;;;;;;;2.83;1.27;;;17.80;65.80;;;;;;5009235;28;20480;-65
2021/10/07 11:23:16;;;;;;;3.63;1.15;;;17.90;65.40;;;;;;5016854;28;20025;-65
2021/10/07 11:25:49;;;;;;;2.58;1.20;;;17.90;65.30;;;;;;5015531;28;20125;-65
2021/10/07 11:28:17;;;;;;;3.05;1.20;;;17.90;64.60;;;;;;5020863;28;20041;-65
2021/10/07 11:30:45;;;;;;;4.22;1.73;;;17.90;65.10;;;;;;5022001;28;20022;-65
2021/10/07 11:33:12;;;;;;;2.10;1.30;;;17.90;66.90;;;;;;5015957;28;20037;-65
2021/10/07 11:35:38;;;;;;;2.92;1.15;;;17.90;67.80;;;;;;5016930;28;20029;-65
2021/10/07 11:38:14;;;;;;;3.22;1.48;;;18.00;66.80;;;;;;5021185;28;20037;-65
2021/10/07 11:40:47;;;;;;;7.95;1.40;;;18.00;65.90;;;;;;5019043;28;20036;-65
2021/10/07 11:43:16;;;;;;;2.28;1.20;;;18.00;66.60;;;;;;5013946;28;20152;-65
2021/10/07 11:45:45;;;;;;;1.92;1.23;;;18.00;66.90;;;;;;5022684;28;20061;-65
2021/10/07 11:48:12;;;;;;;1.52;0.93;;;18.00;65.00;;;;;;5023081;28;20064;-64
2021/10/07 11:50:52;;;;;;;3.03;1.60;;;18.10;65.40;;;;;;5020904;28;20021;-65
2021/10/07 11:53:34;;;;;;;3.20;1.10;;;18.20;65.50;;;;;;5020697;28;20045;-66
2021/10/07 11:56:02;;;;;;;2.90;1.13;;;18.30;63.40;;;;;;5016211;28;20117;-65
2021/10/07 11:58:29;;;;;;;2.90;1.23;;;18.40;63.30;;;;;;5017554;28;20584;-65
2021/10/07 12:00:56;;;;;;;2.92;1.17;;;18.40;64.40;;;;;;5027876;28;20017;-64
2021/10/07 12:03:26;;;;;;;5.65;1.20;;;18.40;63.60;;;;;;5022151;28;20492;-72
2021/10/07 12:06:02;;;;;;;3.72;1.40;;;18.50;65.10;;;;;;5021898;28;20032;-65
2021/10/07 12:08:30;;;;;;;4.95;1.90;;;18.50;64.80;;;;;;5013316;28;20052;-65
2021/10/07 12:10:58;;;;;;;3.78;1.45;;;18.50;64.90;;;;;;4996974;28;20171;-65
2021/10/07 12:13:25;;;;;;;3.53;1.40;;;18.60;64.40;;;;;;5010441;28;20385;-65
2021/10/07 12:15:55;;;;;;;2.80;1.20;;;18.60;64.70;;;;;;5005304;28;20041;-66
2021/10/07 12:18:24;;;;;;;2.97;1.27;;;18.60;64.80;;;;;;5022525;28;20033;-65
2021/10/07 12:21:09;;;;;;;25.90;9.80;;;18.70;64.90;;;;;;5018404;28;20197;-64
2021/10/07 12:24:15;;;;;;;4.00;1.23;;;18.70;65.50;;;;;;5010963;28;20815;-65
2021/10/07 12:26:47;;;;;;;3.00;1.40;;;18.70;63.80;;;;;;5016813;28;20034;-65
2021/10/07 12:29:20;;;;;;;4.68;1.48;;;18.80;65.10;;;;;;5026613;28;20068;-65
2021/10/07 12:32:01;;;;;;;3.05;1.40;;;18.70;64.10;;;;;;5017716;28;20033;-66
2021/10/07 12:34:31;;;;;;;4.32;1.40;;;18.70;64.40;;;;;;5022171;28;20034;-65
2021/10/07 12:36:59;;;;;;;4.68;1.70;;;18.70;64.90;;;;;;5011091;28;20033;-65
2021/10/07 12:39:26;;;;;;;3.80;1.38;;;18.70;63.80;;;;;;5020553;28;20053;-65
2021/10/07 12:42:13;;;;;;;3.17;1.27;;;18.70;65.60;;;;;;5027232;28;20070;-64
2021/10/07 12:44:49;;;;;;;6.10;1.50;;;18.70;65.50;;;;;;5014522;28;20041;-65
2021/10/07 12:47:17;;;;;;;;;;;18.70;65.30;;;;;;5010491;28;20037;-64
2021/10/07 12:49:44;;;;;;;3.10;1.20;;;18.70;64.20;;;;;;5028644;28;19916;-64
2021/10/07 12:52:19;;;;;;;4.93;1.20;;;18.70;64.30;;;;;;5017644;28;20120;-65
2021/10/07 12:55:00;;;;;;;2.70;1.10;;;18.70;65.20;;;;;;5013150;28;20037;-65
2021/10/07 12:57:38;;;;;;;3.28;1.60;;;18.70;65.00;;;;;;4996986;28;20861;-65